sensor_id;sensor_type;location;lat;lon;timestamp;P1;durP1;ratioP1;P2;durP2;ratioP2
42700;SDS011;28316;49.504;8.526;2023-06-19T00:00:13;6.80;;;3.60;;
42700;SDS011;28316;49.504;8.526;2023-06-19T00:02:41;5.60;;;2.83;;
42700;SDS011;28316;49.504;8.526;2023-06-19T00:05:08;5.30;;;3.15;;
42700;SDS011;28316;49.504;8.526;2023-06-19T00:07:38;5.57;;;3.67;;
42700;SDS011;28316;49.504;8.526;2023-06-19T00:10:04;5.30;;;3.03;;
42700;SDS011;28316;49.504;8.526;2023-06-19T00:12:31;6.07;;;3.40;;
42700;SDS011;28316;49.504;8.526;2023-06-19T00:14:57;7.80;;;3.70;;
42700;SDS011;28316;49.504;8.526;2023-06-19T00:17:23;7.68;;;2.97;;
42700;SDS011;28316;49.504;8.526;2023-06-19T00:19:51;5.00;;;2.80;;
42700;SDS011;28316;49.504;8.526;2023-06-19T00:22:17;6.57;;;2.95;;
42700;SDS011;28316;49.504;8.526;2023-06-19T00:24:43;5.80;;;3.28;;
42700;SDS011;28316;49.504;8.526;2023-06-19T00:27:09;9.48;;;3.92;;
42700;SDS011;28316;49.504;8.526;2023-06-19T00:29:35;7.15;;;3.60;;
42700;SDS011;28316;49.504;8.526;2023-06-19T00:32:00;6.45;;;2.80;;
42700;SDS011;28316;49.504;8.526;2023-06-19T00:34:28;6.82;;;3.42;;
42700;SDS011;28316;49.504;8.526;2023-06-19T00:36:55;7.00;;;4.07;;
42700;SDS011;28316;49.504;8.526;2023-06-19T00:39:22;5.55;;;3.35;;
42700;SDS011;28316;49.504;8.526;2023-06-19T00:41:53;6.18;;;3.72;;
42700;SDS011;28316;49.504;8.526;2023-06-19T00:44:20;7.72;;;3.28;;
42700;SDS011;28316;49.504;8.526;2023-06-19T00:46:47;4.55;;;2.75;;
42700;SDS011;28316;49.504;8.526;2023-06-19T00:49:25;6.55;;;3.45;;
42700;SDS011;28316;49.504;8.526;2023-06-19T00:51:52;6.22;;;3.33;;
42700;SDS011;28316;49.504;8.526;2023-06-19T00:54:18;7.30;;;4.00;;
42700;SDS011;28316;49.504;8.526;2023-06-19T00:56:45;9.30;;;3.65;;
42700;SDS011;28316;49.504;8.526;2023-06-19T00:59:12;7.72;;;3.70;;
42700;SDS011;28316;49.504;8.526;2023-06-19T01:01:43;5.85;;;3.40;;
42700;SDS011;28316;49.504;8.526;2023-06-19T01:04:11;6.53;;;3.67;;
42700;SDS011;28316;49.504;8.526;2023-06-19T01:06:46;7.63;;;4.50;;
42700;SDS011;28316;49.504;8.526;2023-06-19T01:09:20;6.90;;;3.83;;
42700;SDS011;28316;49.504;8.526;2023-06-19T01:11:48;5.63;;;3.10;;
42700;SDS011;28316;49.504;8.526;2023-06-19T01:14:28;5.53;;;3.28;;
42700;SDS011;28316;49.504;8.526;2023-06-19T01:17:10;10.20;;;3.70;;
42700;SDS011;28316;49.504;8.526;2023-06-19T01:19:36;9.63;;;3.97;;
42700;SDS011;28316;49.504;8.526;2023-06-19T01:22:04;9.20;;;3.55;;
42700;SDS011;28316;49.504;8.526;2023-06-19T01:24:30;7.05;;;3.38;;
42700;SDS011;28316;49.504;8.526;2023-06-19T01:26:56;5.72;;;3.53;;
42700;SDS011;28316;49.504;8.526;2023-06-19T01:29:22;6.20;;;3.53;;
42700;SDS011;28316;49.504;8.526;2023-06-19T01:34:54;5.93;;;3.60;;
42700;SDS011;28316;49.504;8.526;2023-06-19T01:37:24;5.43;;;3.55;;
42700;SDS011;28316;49.504;8.526;2023-06-19T01:39:52;9.40;;;4.63;;
42700;SDS011;28316;49.504;8.526;2023-06-19T01:42:22;6.40;;;3.67;;
42700;SDS011;28316;49.504;8.526;2023-06-19T01:44:48;7.82;;;3.95;;
42700;SDS011;28316;49.504;8.526;2023-06-19T01:47:15;6.05;;;3.50;;
42700;SDS011;28316;49.504;8.526;2023-06-19T01:49:45;6.68;;;3.60;;
42700;SDS011;28316;49.504;8.526;2023-06-19T01:52:11;7.00;;;4.10;;
42700;SDS011;28316;49.504;8.526;2023-06-19T01:54:38;5.93;;;3.15;;
42700;SDS011;28316;49.504;8.526;2023-06-19T01:57:05;4.95;;;3.08;;
42700;SDS011;28316;49.504;8.526;2023-06-19T01:59:31;5.68;;;3.42;;
42700;SDS011;28316;49.504;8.526;2023-06-19T02:01:57;4.32;;;2.80;;
42700;SDS011;28316;49.504;8.526;2023-06-19T02:04:22;5.00;;;2.83;;
42700;SDS011;28316;49.504;8.526;2023-06-19T02:06:48;5.63;;;3.28;;
42700;SDS011;28316;49.504;8.526;2023-06-19T02:09:14;5.72;;;2.92;;
42700;SDS011;28316;49.504;8.526;2023-06-19T02:11:40;5.18;;;2.55;;
42700;SDS011;28316;49.504;8.526;2023-06-19T02:14:05;7.60;;;3.10;;
42700;SDS011;28316;49.504;8.526;2023-06-19T02:16:31;6.03;;;3.03;;
42700;SDS011;28316;49.504;8.526;2023-06-19T02:18:57;6.88;;;3.65;;
42700;SDS011;28316;49.504;8.526;2023-06-19T02:21:23;4.03;;;2.70;;
42700;SDS011;28316;49.504;8.526;2023-06-19T02:23:48;7.47;;;3.35;;
42700;SDS011;28316;49.504;8.526;2023-06-19T02:26:15;4.22;;;2.58;;
42700;SDS011;28316;49.504;8.526;2023-06-19T02:28:40;4.57;;;2.92;;
42700;SDS011;28316;49.504;8.526;2023-06-19T02:31:06;4.35;;;2.63;;
42700;SDS011;28316;49.504;8.526;2023-06-19T02:33:32;4.53;;;2.50;;
42700;SDS011;28316;49.504;8.526;2023-06-19T02:35:57;4.25;;;2.30;;
42700;SDS011;28316;49.504;8.526;2023-06-19T02:38:26;4.90;;;2.33;;
42700;SDS011;28316;49.504;8.526;2023-06-19T02:40:55;5.20;;;3.08;;
42700;SDS011;28316;49.504;8.526;2023-06-19T02:45:52;17.13;;;3.35;;
42700;SDS011;28316;49.504;8.526;2023-06-19T02:48:17;5.63;;;2.65;;
42700;SDS011;28316;49.504;8.526;2023-06-19T02:50:44;6.80;;;2.67;;
42700;SDS011;28316;49.504;8.526;2023-06-19T02:53:10;5.03;;;2.70;;
42700;SDS011;28316;49.504;8.526;2023-06-19T02:55:36;3.60;;;2.00;;
42700;SDS011;28316;49.504;8.526;2023-06-19T02:58:02;5.55;;;2.97;;
42700;SDS011;28316;49.504;8.526;2023-06-19T03:00:28;5.53;;;2.58;;
42700;SDS011;28316;49.504;8.526;2023-06-19T03:02:54;5.15;;;2.58;;
42700;SDS011;28316;49.504;8.526;2023-06-19T03:05:20;4.72;;;2.38;;
42700;SDS011;28316;49.504;8.526;2023-06-19T03:07:45;5.68;;;2.03;;
42700;SDS011;28316;49.504;8.526;2023-06-19T03:10:11;4.13;;;1.95;;
42700;SDS011;28316;49.504;8.526;2023-06-19T03:12:37;3.63;;;2.03;;
42700;SDS011;28316;49.504;8.526;2023-06-19T03:15:04;3.20;;;1.88;;
42700;SDS011;28316;49.504;8.526;2023-06-19T03:17:30;3.55;;;1.90;;
42700;SDS011;28316;49.504;8.526;2023-06-19T03:19:56;2.45;;;1.58;;
42700;SDS011;28316;49.504;8.526;2023-06-19T03:22:22;3.80;;;1.88;;
42700;SDS011;28316;49.504;8.526;2023-06-19T03:24:48;3.25;;;2.00;;
42700;SDS011;28316;49.504;8.526;2023-06-19T03:27:14;3.45;;;1.80;;
42700;SDS011;28316;49.504;8.526;2023-06-19T03:29:39;3.00;;;1.58;;
42700;SDS011;28316;49.504;8.526;2023-06-19T03:32:05;2.85;;;1.70;;
42700;SDS011;28316;49.504;8.526;2023-06-19T03:34:31;3.10;;;1.77;;
42700;SDS011;28316;49.504;8.526;2023-06-19T03:36:57;3.35;;;1.83;;
42700;SDS011;28316;49.504;8.526;2023-06-19T03:39:23;3.38;;;1.80;;
42700;SDS011;28316;49.504;8.526;2023-06-19T03:41:49;4.05;;;2.00;;
42700;SDS011;28316;49.504;8.526;2023-06-19T03:44:15;5.43;;;1.88;;
42700;SDS011;28316;49.504;8.526;2023-06-19T03:46:41;2.38;;;1.58;;
42700;SDS011;28316;49.504;8.526;2023-06-19T03:49:07;3.58;;;1.75;;
42700;SDS011;28316;49.504;8.526;2023-06-19T03:51:34;3.17;;;1.70;;
42700;SDS011;28316;49.504;8.526;2023-06-19T03:54:00;5.50;;;1.60;;
42700;SDS011;28316;49.504;8.526;2023-06-19T03:56:27;3.03;;;1.70;;
42700;SDS011;28316;49.504;8.526;2023-06-19T03:58:53;2.47;;;1.38;;
42700;SDS011;28316;49.504;8.526;2023-06-19T04:01:18;3.38;;;1.67;;
42700;SDS011;28316;49.504;8.526;2023-06-19T04:03:44;3.72;;;1.40;;
42700;SDS011;28316;49.504;8.526;2023-06-19T04:06:10;4.03;;;1.52;;
42700;SDS011;28316;49.504;8.526;2023-06-19T04:08:35;5.10;;;1.23;;
42700;SDS011;28316;49.504;8.526;2023-06-19T04:11:01;4.25;;;1.65;;
42700;SDS011;28316;49.504;8.526;2023-06-19T04:13:27;3.70;;;1.27;;
42700;SDS011;28316;49.504;8.526;2023-06-19T04:15:53;3.88;;;1.73;;
42700;SDS011;28316;49.504;8.526;2023-06-19T04:18:18;3.05;;;1.55;;
42700;SDS011;28316;49.504;8.526;2023-06-19T04:20:44;2.78;;;1.00;;
42700;SDS011;28316;49.504;8.526;2023-06-19T04:23:10;2.13;;;1.20;;
42700;SDS011;28316;49.504;8.526;2023-06-19T04:25:36;2.22;;;1.13;;
42700;SDS011;28316;49.504;8.526;2023-06-19T04:28:02;2.53;;;1.20;;
42700;SDS011;28316;49.504;8.526;2023-06-19T04:30:29;2.13;;;0.90;;
42700;SDS011;28316;49.504;8.526;2023-06-19T04:32:56;6.13;;;1.65;;
42700;SDS011;28316;49.504;8.526;2023-06-19T04:35:23;2.58;;;1.15;;
42700;SDS011;28316;49.504;8.526;2023-06-19T04:37:49;3.58;;;1.30;;
42700;SDS011;28316;49.504;8.526;2023-06-19T04:40:15;3.22;;;1.20;;
42700;SDS011;28316;49.504;8.526;2023-06-19T04:42:41;2.72;;;1.23;;
42700;SDS011;28316;49.504;8.526;2023-06-19T04:45:07;4.93;;;1.40;;
42700;SDS011;28316;49.504;8.526;2023-06-19T04:47:34;4.88;;;1.00;;
42700;SDS011;28316;49.504;8.526;2023-06-19T04:50:00;2.72;;;1.40;;
42700;SDS011;28316;49.504;8.526;2023-06-19T04:52:26;1.92;;;1.15;;
42700;SDS011;28316;49.504;8.526;2023-06-19T04:54:52;2.65;;;1.35;;
42700;SDS011;28316;49.504;8.526;2023-06-19T04:57:17;3.03;;;1.33;;
42700;SDS011;28316;49.504;8.526;2023-06-19T04:59:43;2.30;;;1.23;;
42700;SDS011;28316;49.504;8.526;2023-06-19T05:02:09;7.05;;;1.10;;
42700;SDS011;28316;49.504;8.526;2023-06-19T05:04:36;2.03;;;1.20;;
42700;SDS011;28316;49.504;8.526;2023-06-19T05:07:01;1.73;;;1.10;;
42700;SDS011;28316;49.504;8.526;2023-06-19T05:09:28;2.17;;;1.42;;
42700;SDS011;28316;49.504;8.526;2023-06-19T05:11:54;3.35;;;1.27;;
42700;SDS011;28316;49.504;8.526;2023-06-19T05:14:22;2.38;;;1.45;;
42700;SDS011;28316;49.504;8.526;2023-06-19T05:16:48;1.75;;;0.77;;
42700;SDS011;28316;49.504;8.526;2023-06-19T05:19:14;3.83;;;1.58;;
42700;SDS011;28316;49.504;8.526;2023-06-19T05:21:39;1.95;;;0.85;;
42700;SDS011;28316;49.504;8.526;2023-06-19T05:24:05;8.45;;;2.28;;
42700;SDS011;28316;49.504;8.526;2023-06-19T05:26:31;2.25;;;1.35;;
42700;SDS011;28316;49.504;8.526;2023-06-19T05:28:57;3.05;;;1.40;;
42700;SDS011;28316;49.504;8.526;2023-06-19T05:31:22;4.07;;;1.58;;
42700;SDS011;28316;49.504;8.526;2023-06-19T05:33:48;3.22;;;1.50;;
42700;SDS011;28316;49.504;8.526;2023-06-19T05:36:14;3.45;;;1.70;;
42700;SDS011;28316;49.504;8.526;2023-06-19T05:38:40;3.22;;;1.20;;
42700;SDS011;28316;49.504;8.526;2023-06-19T05:41:05;2.65;;;1.42;;
42700;SDS011;28316;49.504;8.526;2023-06-19T05:43:31;6.22;;;1.42;;
42700;SDS011;28316;49.504;8.526;2023-06-19T05:45:57;3.88;;;1.42;;
42700;SDS011;28316;49.504;8.526;2023-06-19T05:48:27;6.82;;;1.80;;
42700;SDS011;28316;49.504;8.526;2023-06-19T05:50:53;2.85;;;1.45;;
42700;SDS011;28316;49.504;8.526;2023-06-19T05:53:18;3.33;;;1.35;;
42700;SDS011;28316;49.504;8.526;2023-06-19T05:55:44;5.30;;;1.10;;
42700;SDS011;28316;49.504;8.526;2023-06-19T05:58:10;1.83;;;1.10;;
42700;SDS011;28316;49.504;8.526;2023-06-19T06:00:36;4.72;;;1.73;;
42700;SDS011;28316;49.504;8.526;2023-06-19T06:03:02;3.78;;;1.80;;
42700;SDS011;28316;49.504;8.526;2023-06-19T06:05:28;2.15;;;1.17;;
42700;SDS011;28316;49.504;8.526;2023-06-19T06:07:54;3.72;;;1.50;;
42700;SDS011;28316;49.504;8.526;2023-06-19T06:10:20;3.25;;;1.38;;
42700;SDS011;28316;49.504;8.526;2023-06-19T06:12:47;3.78;;;1.58;;
42700;SDS011;28316;49.504;8.526;2023-06-19T06:15:14;3.60;;;1.45;;
42700;SDS011;28316;49.504;8.526;2023-06-19T06:17:40;3.88;;;1.20;;
42700;SDS011;28316;49.504;8.526;2023-06-19T06:20:06;2.28;;;1.25;;
42700;SDS011;28316;49.504;8.526;2023-06-19T06:22:36;2.03;;;1.10;;
42700;SDS011;28316;49.504;8.526;2023-06-19T06:25:02;3.65;;;1.65;;
42700;SDS011;28316;49.504;8.526;2023-06-19T06:27:29;3.10;;;1.13;;
42700;SDS011;28316;49.504;8.526;2023-06-19T06:29:55;1.90;;;1.30;;
42700;SDS011;28316;49.504;8.526;2023-06-19T06:32:21;3.75;;;1.90;;
42700;SDS011;28316;49.504;8.526;2023-06-19T06:34:46;11.07;;;2.45;;
42700;SDS011;28316;49.504;8.526;2023-06-19T06:37:12;2.88;;;1.45;;
42700;SDS011;28316;49.504;8.526;2023-06-19T06:39:38;4.40;;;1.88;;
42700;SDS011;28316;49.504;8.526;2023-06-19T06:42:04;2.45;;;1.40;;
42700;SDS011;28316;49.504;8.526;2023-06-19T06:44:30;1.65;;;1.02;;
42700;SDS011;28316;49.504;8.526;2023-06-19T06:46:56;3.33;;;1.40;;
42700;SDS011;28316;49.504;8.526;2023-06-19T06:49:21;3.22;;;1.75;;
42700;SDS011;28316;49.504;8.526;2023-06-19T06:51:47;6.03;;;2.25;;
42700;SDS011;28316;49.504;8.526;2023-06-19T06:54:13;2.92;;;1.42;;
42700;SDS011;28316;49.504;8.526;2023-06-19T06:56:39;4.10;;;1.45;;
42700;SDS011;28316;49.504;8.526;2023-06-19T06:59:05;7.88;;;2.30;;
42700;SDS011;28316;49.504;8.526;2023-06-19T07:01:30;6.22;;;2.00;;
42700;SDS011;28316;49.504;8.526;2023-06-19T07:03:56;2.42;;;1.40;;
42700;SDS011;28316;49.504;8.526;2023-06-19T07:06:22;4.70;;;2.17;;
42700;SDS011;28316;49.504;8.526;2023-06-19T07:08:48;11.60;;;1.83;;
42700;SDS011;28316;49.504;8.526;2023-06-19T07:11:13;6.05;;;1.92;;
42700;SDS011;28316;49.504;8.526;2023-06-19T07:13:39;3.92;;;2.05;;
42700;SDS011;28316;49.504;8.526;2023-06-19T07:16:06;3.83;;;1.95;;
42700;SDS011;28316;49.504;8.526;2023-06-19T07:18:32;4.75;;;2.22;;
42700;SDS011;28316;49.504;8.526;2023-06-19T07:21:00;5.28;;;2.00;;
42700;SDS011;28316;49.504;8.526;2023-06-19T07:23:27;5.00;;;2.00;;
42700;SDS011;28316;49.504;8.526;2023-06-19T07:25:53;5.45;;;2.47;;
42700;SDS011;28316;49.504;8.526;2023-06-19T07:28:19;2.70;;;1.80;;
42700;SDS011;28316;49.504;8.526;2023-06-19T07:30:44;4.15;;;2.15;;
42700;SDS011;28316;49.504;8.526;2023-06-19T07:33:12;3.22;;;1.73;;
42700;SDS011;28316;49.504;8.526;2023-06-19T07:35:38;3.90;;;2.40;;
42700;SDS011;28316;49.504;8.526;2023-06-19T07:38:04;3.90;;;2.17;;
42700;SDS011;28316;49.504;8.526;2023-06-19T07:40:30;6.00;;;2.55;;
42700;SDS011;28316;49.504;8.526;2023-06-19T07:42:55;6.50;;;2.63;;
42700;SDS011;28316;49.504;8.526;2023-06-19T07:45:21;3.20;;;1.90;;
42700;SDS011;28316;49.504;8.526;2023-06-19T07:47:54;2.58;;;1.52;;
42700;SDS011;28316;49.504;8.526;2023-06-19T07:50:22;5.88;;;2.58;;
42700;SDS011;28316;49.504;8.526;2023-06-19T07:52:47;4.20;;;2.10;;
42700;SDS011;28316;49.504;8.526;2023-06-19T07:55:13;4.57;;;1.77;;
42700;SDS011;28316;49.504;8.526;2023-06-19T07:57:39;3.88;;;2.53;;
42700;SDS011;28316;49.504;8.526;2023-06-19T08:00:05;2.88;;;2.00;;
42700;SDS011;28316;49.504;8.526;2023-06-19T08:02:38;4.60;;;2.60;;
42700;SDS011;28316;49.504;8.526;2023-06-19T08:05:04;3.22;;;1.90;;
42700;SDS011;28316;49.504;8.526;2023-06-19T08:07:33;3.20;;;1.85;;
42700;SDS011;28316;49.504;8.526;2023-06-19T08:09:59;3.92;;;2.10;;
42700;SDS011;28316;49.504;8.526;2023-06-19T08:12:25;4.28;;;2.92;;
42700;SDS011;28316;49.504;8.526;2023-06-19T08:14:51;4.68;;;2.22;;
42700;SDS011;28316;49.504;8.526;2023-06-19T08:17:16;4.20;;;2.10;;
42700;SDS011;28316;49.504;8.526;2023-06-19T08:19:42;4.63;;;2.25;;
42700;SDS011;28316;49.504;8.526;2023-06-19T08:22:08;3.42;;;1.77;;
42700;SDS011;28316;49.504;8.526;2023-06-19T08:24:35;5.57;;;2.78;;
42700;SDS011;28316;49.504;8.526;2023-06-19T08:27:02;3.55;;;2.10;;
42700;SDS011;28316;49.504;8.526;2023-06-19T08:29:28;4.07;;;2.42;;
42700;SDS011;28316;49.504;8.526;2023-06-19T08:31:53;6.57;;;2.75;;
42700;SDS011;28316;49.504;8.526;2023-06-19T08:34:19;4.57;;;2.47;;
42700;SDS011;28316;49.504;8.526;2023-06-19T08:36:45;3.95;;;2.33;;
42700;SDS011;28316;49.504;8.526;2023-06-19T08:39:10;5.43;;;2.65;;
42700;SDS011;28316;49.504;8.526;2023-06-19T08:41:37;7.30;;;2.53;;
42700;SDS011;28316;49.504;8.526;2023-06-19T08:44:04;4.95;;;2.17;;
42700;SDS011;28316;49.504;8.526;2023-06-19T08:46:30;3.72;;;2.13;;
42700;SDS011;28316;49.504;8.526;2023-06-19T08:48:56;4.13;;;2.13;;
42700;SDS011;28316;49.504;8.526;2023-06-19T08:51:22;3.17;;;1.92;;
42700;SDS011;28316;49.504;8.526;2023-06-19T08:54:00;5.60;;;2.70;;
42700;SDS011;28316;49.504;8.526;2023-06-19T08:56:29;4.05;;;2.20;;
42700;SDS011;28316;49.504;8.526;2023-06-19T08:59:12;4.72;;;2.38;;
42700;SDS011;28316;49.504;8.526;2023-06-19T09:01:46;5.07;;;2.22;;
42700;SDS011;28316;49.504;8.526;2023-06-19T09:04:20;6.63;;;2.42;;
42700;SDS011;28316;49.504;8.526;2023-06-19T09:09:23;3.78;;;2.35;;
42700;SDS011;28316;49.504;8.526;2023-06-19T09:17:07;9.55;;;2.30;;
42700;SDS011;28316;49.504;8.526;2023-06-19T09:19:36;5.10;;;2.38;;
42700;SDS011;28316;49.504;8.526;2023-06-19T09:22:06;3.53;;;2.35;;
42700;SDS011;28316;49.504;8.526;2023-06-19T09:24:38;4.30;;;2.28;;
42700;SDS011;28316;49.504;8.526;2023-06-19T09:27:09;3.65;;;2.42;;
42700;SDS011;28316;49.504;8.526;2023-06-19T09:29:43;3.78;;;2.38;;
42700;SDS011;28316;49.504;8.526;2023-06-19T09:32:18;6.60;;;2.30;;
42700;SDS011;28316;49.504;8.526;2023-06-19T09:34:46;4.82;;;2.28;;
42700;SDS011;28316;49.504;8.526;2023-06-19T09:37:14;5.22;;;2.95;;
42700;SDS011;28316;49.504;8.526;2023-06-19T09:39:41;11.10;;;2.72;;
42700;SDS011;28316;49.504;8.526;2023-06-19T09:42:07;5.22;;;1.95;;
42700;SDS011;28316;49.504;8.526;2023-06-19T09:44:40;4.22;;;2.20;;
42700;SDS011;28316;49.504;8.526;2023-06-19T09:47:15;4.07;;;1.95;;
42700;SDS011;28316;49.504;8.526;2023-06-19T09:49:48;3.63;;;2.25;;
42700;SDS011;28316;49.504;8.526;2023-06-19T09:52:19;4.82;;;2.20;;
42700;SDS011;28316;49.504;8.526;2023-06-19T09:57:17;5.28;;;2.80;;
42700;SDS011;28316;49.504;8.526;2023-06-19T09:59:45;3.28;;;2.03;;
42700;SDS011;28316;49.504;8.526;2023-06-19T10:02:21;3.70;;;2.53;;
42700;SDS011;28316;49.504;8.526;2023-06-19T10:04:51;4.10;;;2.45;;
42700;SDS011;28316;49.504;8.526;2023-06-19T10:07:21;5.33;;;2.97;;
42700;SDS011;28316;49.504;8.526;2023-06-19T10:09:59;4.85;;;2.20;;
42700;SDS011;28316;49.504;8.526;2023-06-19T10:15:20;4.50;;;2.72;;
42700;SDS011;28316;49.504;8.526;2023-06-19T10:17:49;5.75;;;2.30;;
42700;SDS011;28316;49.504;8.526;2023-06-19T10:20:32;3.55;;;2.30;;
42700;SDS011;28316;49.504;8.526;2023-06-19T10:23:04;4.47;;;2.45;;
42700;SDS011;28316;49.504;8.526;2023-06-19T10:28:29;3.47;;;2.10;;
42700;SDS011;28316;49.504;8.526;2023-06-19T10:31:04;3.30;;;1.98;;
42700;SDS011;28316;49.504;8.526;2023-06-19T10:33:33;3.42;;;2.05;;
42700;SDS011;28316;49.504;8.526;2023-06-19T10:36:13;4.15;;;1.83;;
42700;SDS011;28316;49.504;8.526;2023-06-19T10:38:41;6.28;;;1.73;;
42700;SDS011;28316;49.504;8.526;2023-06-19T10:41:15;3.83;;;2.60;;
42700;SDS011;28316;49.504;8.526;2023-06-19T10:43:52;3.97;;;1.80;;
42700;SDS011;28316;49.504;8.526;2023-06-19T10:46:22;4.22;;;1.98;;
42700;SDS011;28316;49.504;8.526;2023-06-19T10:48:49;3.10;;;2.05;;
42700;SDS011;28316;49.504;8.526;2023-06-19T10:51:19;4.03;;;2.10;;
42700;SDS011;28316;49.504;8.526;2023-06-19T10:53:45;5.60;;;1.90;;
42700;SDS011;28316;49.504;8.526;2023-06-19T10:56:11;4.22;;;2.30;;
42700;SDS011;28316;49.504;8.526;2023-06-19T10:58:36;4.53;;;2.20;;
42700;SDS011;28316;49.504;8.526;2023-06-19T11:01:02;3.38;;;1.80;;
42700;SDS011;28316;49.504;8.526;2023-06-19T11:03:28;3.45;;;1.75;;
42700;SDS011;28316;49.504;8.526;2023-06-19T11:05:56;3.90;;;1.65;;
42700;SDS011;28316;49.504;8.526;2023-06-19T11:08:22;4.90;;;2.28;;
42700;SDS011;28316;49.504;8.526;2023-06-19T11:10:49;3.83;;;1.58;;
42700;SDS011;28316;49.504;8.526;2023-06-19T11:13:19;3.20;;;1.80;;
42700;SDS011;28316;49.504;8.526;2023-06-19T11:15:45;2.53;;;1.80;;
42700;SDS011;28316;49.504;8.526;2023-06-19T11:18:16;3.30;;;1.50;;
42700;SDS011;28316;49.504;8.526;2023-06-19T11:20:47;2.63;;;1.35;;
42700;SDS011;28316;49.504;8.526;2023-06-19T11:23:15;6.35;;;3.03;;
42700;SDS011;28316;49.504;8.526;2023-06-19T11:25:42;3.63;;;1.60;;
42700;SDS011;28316;49.504;8.526;2023-06-19T11:28:12;3.20;;;1.60;;
42700;SDS011;28316;49.504;8.526;2023-06-19T11:30:48;3.90;;;2.40;;
42700;SDS011;28316;49.504;8.526;2023-06-19T11:33:22;5.22;;;2.08;;
42700;SDS011;28316;49.504;8.526;2023-06-19T11:35:51;2.17;;;1.50;;
42700;SDS011;28316;49.504;8.526;2023-06-19T11:38:20;2.45;;;1.42;;
42700;SDS011;28316;49.504;8.526;2023-06-19T11:40:47;6.97;;;2.22;;
42700;SDS011;28316;49.504;8.526;2023-06-19T11:43:27;3.22;;;1.95;;
42700;SDS011;28316;49.504;8.526;2023-06-19T11:46:06;5.45;;;1.98;;
42700;SDS011;28316;49.504;8.526;2023-06-19T11:48:36;3.17;;;1.55;;
42700;SDS011;28316;49.504;8.526;2023-06-19T11:51:02;3.60;;;1.90;;
42700;SDS011;28316;49.504;8.526;2023-06-19T11:53:28;3.72;;;1.60;;
42700;SDS011;28316;49.504;8.526;2023-06-19T11:55:54;3.10;;;1.33;;
42700;SDS011;28316;49.504;8.526;2023-06-19T11:58:21;4.82;;;2.03;;
42700;SDS011;28316;49.504;8.526;2023-06-19T12:00:47;4.13;;;1.58;;
42700;SDS011;28316;49.504;8.526;2023-06-19T12:03:13;3.15;;;1.77;;
42700;SDS011;28316;49.504;8.526;2023-06-19T12:05:40;2.50;;;1.40;;
42700;SDS011;28316;49.504;8.526;2023-06-19T12:08:05;3.45;;;1.85;;
42700;SDS011;28316;49.504;8.526;2023-06-19T12:10:32;7.20;;;2.08;;
42700;SDS011;28316;49.504;8.526;2023-06-19T12:12:59;3.42;;;1.90;;
42700;SDS011;28316;49.504;8.526;2023-06-19T12:15:25;4.22;;;2.33;;
42700;SDS011;28316;49.504;8.526;2023-06-19T12:17:51;3.35;;;1.70;;
42700;SDS011;28316;49.504;8.526;2023-06-19T12:20:17;6.47;;;1.98;;
42700;SDS011;28316;49.504;8.526;2023-06-19T12:22:44;3.00;;;1.85;;
42700;SDS011;28316;49.504;8.526;2023-06-19T12:25:09;3.00;;;1.73;;
42700;SDS011;28316;49.504;8.526;2023-06-19T12:27:36;3.40;;;1.98;;
42700;SDS011;28316;49.504;8.526;2023-06-19T12:30:06;3.53;;;2.00;;
42700;SDS011;28316;49.504;8.526;2023-06-19T12:32:33;2.90;;;1.67;;
42700;SDS011;28316;49.504;8.526;2023-06-19T12:34:59;3.33;;;1.88;;
42700;SDS011;28316;49.504;8.526;2023-06-19T12:37:25;2.63;;;1.52;;
42700;SDS011;28316;49.504;8.526;2023-06-19T12:39:50;4.05;;;1.52;;
42700;SDS011;28316;49.504;8.526;2023-06-19T12:42:16;3.45;;;1.95;;
42700;SDS011;28316;49.504;8.526;2023-06-19T12:44:42;2.72;;;1.50;;
42700;SDS011;28316;49.504;8.526;2023-06-19T12:47:12;3.13;;;1.77;;
42700;SDS011;28316;49.504;8.526;2023-06-19T12:49:38;2.63;;;1.83;;
42700;SDS011;28316;49.504;8.526;2023-06-19T12:52:04;4.60;;;1.90;;
42700;SDS011;28316;49.504;8.526;2023-06-19T12:54:31;3.05;;;1.83;;
42700;SDS011;28316;49.504;8.526;2023-06-19T12:56:56;3.45;;;1.60;;
42700;SDS011;28316;49.504;8.526;2023-06-19T12:59:22;7.00;;;2.13;;
42700;SDS011;28316;49.504;8.526;2023-06-19T13:01:48;2.13;;;1.58;;
42700;SDS011;28316;49.504;8.526;2023-06-19T13:04:15;4.50;;;1.75;;
42700;SDS011;28316;49.504;8.526;2023-06-19T13:14:03;5.25;;;2.38;;
42700;SDS011;28316;49.504;8.526;2023-06-19T13:16:30;3.10;;;1.55;;
42700;SDS011;28316;49.504;8.526;2023-06-19T13:18:57;4.15;;;2.30;;
42700;SDS011;28316;49.504;8.526;2023-06-19T13:21:22;4.95;;;1.40;;
42700;SDS011;28316;49.504;8.526;2023-06-19T13:23:48;2.22;;;1.45;;
42700;SDS011;28316;49.504;8.526;2023-06-19T13:26:14;3.55;;;1.80;;
42700;SDS011;28316;49.504;8.526;2023-06-19T13:28:40;2.05;;;1.48;;
42700;SDS011;28316;49.504;8.526;2023-06-19T13:31:06;3.05;;;1.67;;
42700;SDS011;28316;49.504;8.526;2023-06-19T13:33:32;3.60;;;1.65;;
42700;SDS011;28316;49.504;8.526;2023-06-19T13:35:57;3.55;;;1.95;;
42700;SDS011;28316;49.504;8.526;2023-06-19T13:38:23;4.30;;;2.17;;
42700;SDS011;28316;49.504;8.526;2023-06-19T13:40:49;2.15;;;1.40;;
42700;SDS011;28316;49.504;8.526;2023-06-19T13:43:15;3.30;;;1.70;;
42700;SDS011;28316;49.504;8.526;2023-06-19T13:45:41;3.42;;;2.17;;
42700;SDS011;28316;49.504;8.526;2023-06-19T13:48:07;3.67;;;1.88;;
42700;SDS011;28316;49.504;8.526;2023-06-19T13:50:33;3.85;;;1.85;;
42700;SDS011;28316;49.504;8.526;2023-06-19T13:52:59;3.63;;;1.70;;
42700;SDS011;28316;49.504;8.526;2023-06-19T13:55:26;4.60;;;1.95;;
42700;SDS011;28316;49.504;8.526;2023-06-19T13:57:52;3.67;;;2.08;;
42700;SDS011;28316;49.504;8.526;2023-06-19T14:00:19;4.20;;;1.90;;
42700;SDS011;28316;49.504;8.526;2023-06-19T14:02:45;3.10;;;1.85;;
42700;SDS011;28316;49.504;8.526;2023-06-19T14:05:11;3.92;;;1.73;;
42700;SDS011;28316;49.504;8.526;2023-06-19T14:07:40;11.85;;;2.00;;
42700;SDS011;28316;49.504;8.526;2023-06-19T14:10:09;3.00;;;1.63;;
42700;SDS011;28316;49.504;8.526;2023-06-19T14:12:35;3.40;;;1.83;;
42700;SDS011;28316;49.504;8.526;2023-06-19T14:15:01;4.15;;;1.98;;
42700;SDS011;28316;49.504;8.526;2023-06-19T14:17:27;3.28;;;1.73;;
42700;SDS011;28316;49.504;8.526;2023-06-19T14:19:53;4.40;;;1.98;;
42700;SDS011;28316;49.504;8.526;2023-06-19T14:22:21;5.90;;;1.90;;
42700;SDS011;28316;49.504;8.526;2023-06-19T14:24:46;3.70;;;1.98;;
42700;SDS011;28316;49.504;8.526;2023-06-19T14:27:12;2.47;;;1.55;;
42700;SDS011;28316;49.504;8.526;2023-06-19T14:29:38;2.95;;;1.63;;
42700;SDS011;28316;49.504;8.526;2023-06-19T14:32:04;2.72;;;1.40;;
42700;SDS011;28316;49.504;8.526;2023-06-19T14:34:30;3.05;;;1.80;;
42700;SDS011;28316;49.504;8.526;2023-06-19T14:36:56;4.13;;;2.10;;
42700;SDS011;28316;49.504;8.526;2023-06-19T14:39:21;4.18;;;2.13;;
42700;SDS011;28316;49.504;8.526;2023-06-19T14:41:47;10.25;;;4.63;;
42700;SDS011;28316;49.504;8.526;2023-06-19T14:44:13;4.03;;;2.10;;
42700;SDS011;28316;49.504;8.526;2023-06-19T14:46:40;3.85;;;2.15;;
42700;SDS011;28316;49.504;8.526;2023-06-19T14:49:06;2.40;;;1.60;;
42700;SDS011;28316;49.504;8.526;2023-06-19T14:51:35;3.30;;;2.05;;
42700;SDS011;28316;49.504;8.526;2023-06-19T14:54:00;2.58;;;1.58;;
42700;SDS011;28316;49.504;8.526;2023-06-19T14:56:27;4.15;;;1.90;;
42700;SDS011;28316;49.504;8.526;2023-06-19T14:58:53;2.90;;;1.85;;
42700;SDS011;28316;49.504;8.526;2023-06-19T15:01:19;3.92;;;1.88;;
42700;SDS011;28316;49.504;8.526;2023-06-19T15:03:45;3.97;;;2.03;;
42700;SDS011;28316;49.504;8.526;2023-06-19T15:06:10;3.35;;;1.90;;
42700;SDS011;28316;49.504;8.526;2023-06-19T15:08:36;2.58;;;1.55;;
42700;SDS011;28316;49.504;8.526;2023-06-19T15:11:03;6.03;;;2.08;;
42700;SDS011;28316;49.504;8.526;2023-06-19T15:13:30;4.15;;;2.03;;
42700;SDS011;28316;49.504;8.526;2023-06-19T15:15:56;3.35;;;1.88;;